createdAt,value
2022-10-20T00:01:16.880Z,11.20
2022-10-20T00:03:46.165Z,10.10
2022-10-20T00:06:19.173Z,12.40
2022-10-20T00:08:47.875Z,13.90
2022-10-20T00:11:18.327Z,15.50
2022-10-20T00:13:48.549Z,13.20
2022-10-20T00:16:17.191Z,13.40
2022-10-20T00:18:45.483Z,12.90
2022-10-20T00:21:17.363Z,12.40
2022-10-20T00:23:45.740Z,13.10
2022-10-20T00:26:20.007Z,13.30
2022-10-20T00:28:48.174Z,15.40
2022-10-20T00:31:21.434Z,12.00
2022-10-20T00:34:03.775Z,14.20
2022-10-20T00:36:31.951Z,12.90
2022-10-20T00:39:01.733Z,11.80
2022-10-20T00:41:30.520Z,12.00
2022-10-20T00:44:36.551Z,13.60
2022-10-20T00:47:04.694Z,10.50
2022-10-20T00:49:32.919Z,11.90
2022-10-20T00:52:00.930Z,10.90
2022-10-20T00:54:29.121Z,10.00
2022-10-20T00:56:59.250Z,13.80
2022-10-20T00:59:31.832Z,12.70
2022-10-20T01:02:02.478Z,12.60
2022-10-20T01:04:32.143Z,12.00
2022-10-20T01:07:00.493Z,14.00
2022-10-20T01:09:28.972Z,12.80
2022-10-20T01:12:20.030Z,10.70
2022-10-20T01:17:46.947Z,12.10
2022-10-20T01:20:36.964Z,9.70
2022-10-20T01:23:25.000Z,9.50
2022-10-20T01:26:22.009Z,13.60
2022-10-20T01:28:58.926Z,11.90
2022-10-20T01:31:35.265Z,12.10
2022-10-20T01:34:18.566Z,11.90
2022-10-20T01:36:55.765Z,8.40
2022-10-20T01:39:27.174Z,10.00
2022-10-20T01:42:07.667Z,11.60
2022-10-20T01:44:38.941Z,10.80
2022-10-20T01:47:10.010Z,15.50
2022-10-20T01:49:38.171Z,10.30
2022-10-20T01:52:06.490Z,13.30
2022-10-20T01:54:34.888Z,10.00
2022-10-20T01:57:12.248Z,11.30
2022-10-20T01:59:42.891Z,10.40
2022-10-20T02:03:25.560Z,9.70
2022-10-20T02:06:19.608Z,9.10
2022-10-20T02:10:28.066Z,9.90
2022-10-20T02:13:00.933Z,11.50
2022-10-20T02:15:31.860Z,8.30
2022-10-20T02:18:03.701Z,12.90
2022-10-20T02:20:32.852Z,11.00
2022-10-20T02:23:05.014Z,14.30
2022-10-20T02:25:34.071Z,7.40
2022-10-20T02:28:04.050Z,8.40
2022-10-20T02:30:32.886Z,9.30
2022-10-20T02:33:01.434Z,8.20
2022-10-20T02:35:31.551Z,9.10
2022-10-20T02:38:00.175Z,9.50
2022-10-20T02:40:28.502Z,9.10
2022-10-20T02:42:56.555Z,10.60
2022-10-20T02:45:24.636Z,9.70
2022-10-20T02:47:52.696Z,13.20
2022-10-20T02:50:20.763Z,13.80
2022-10-20T02:52:48.729Z,12.70
2022-10-20T02:57:49.869Z,11.90
2022-10-20T03:00:18.006Z,10.60
2022-10-20T03:02:46.135Z,10.00
2022-10-20T03:05:14.664Z,10.30
2022-10-20T03:07:42.772Z,12.30
2022-10-20T03:10:10.747Z,13.00
2022-10-20T03:12:38.835Z,10.20
2022-10-20T03:15:07.501Z,11.70
2022-10-20T03:17:35.703Z,11.80
2022-10-20T03:20:04.973Z,10.20
2022-10-20T03:22:33.065Z,12.10
2022-10-20T03:25:01.035Z,10.10
2022-10-20T03:27:29.084Z,11.20
2022-10-20T03:29:57.227Z,12.20
2022-10-20T03:32:25.503Z,11.30
2022-10-20T03:34:53.550Z,11.00
2022-10-20T03:37:21.835Z,11.10
2022-10-20T03:39:49.799Z,13.80
2022-10-20T03:42:18.155Z,11.60
2022-10-20T03:44:46.497Z,14.30
2022-10-20T03:47:14.481Z,12.90
2022-10-20T03:49:42.661Z,12.20
2022-10-20T03:52:10.790Z,11.90
2022-10-20T03:54:40.831Z,14.40
2022-10-20T03:57:08.944Z,13.80
2022-10-20T03:59:37.315Z,12.50
2022-10-20T04:02:05.475Z,13.50
2022-10-20T04:04:33.766Z,14.20
2022-10-20T04:07:02.214Z,16.50
2022-10-20T04:09:30.452Z,19.30
2022-10-20T04:11:58.402Z,18.00
2022-10-20T04:14:26.556Z,16.80
2022-10-20T04:16:54.509Z,18.60
2022-10-20T04:19:22.620Z,14.20
2022-10-20T04:21:51.144Z,13.50
2022-10-20T04:24:19.276Z,13.30
2022-10-20T04:29:22.120Z,22.70
2022-10-20T04:31:50.330Z,18.80
2022-10-20T04:34:18.300Z,18.40
2022-10-20T04:36:46.536Z,15.30
2022-10-20T04:39:14.822Z,15.60
2022-10-20T04:41:43.038Z,14.70
2022-10-20T04:44:11.166Z,17.00
2022-10-20T04:46:39.422Z,16.00
2022-10-20T04:49:07.797Z,17.60
2022-10-20T04:51:36.387Z,18.10
2022-10-20T04:56:33.637Z,14.30
2022-10-20T04:59:01.775Z,14.70
2022-10-20T05:01:31.525Z,19.20
2022-10-20T05:03:59.550Z,15.20
2022-10-20T05:06:32.825Z,13.00
2022-10-20T05:09:03.370Z,13.50
2022-10-20T05:11:35.350Z,13.80
2022-10-20T05:14:04.178Z,12.40
2022-10-20T05:16:32.282Z,14.50
2022-10-20T05:19:00.715Z,12.40
2022-10-20T05:21:31.222Z,13.20
2022-10-20T05:24:01.950Z,20.00
2022-10-20T05:26:34.731Z,17.00
2022-10-20T05:29:07.757Z,16.00
2022-10-20T05:31:41.370Z,14.80
2022-10-20T05:34:11.094Z,14.70
2022-10-20T05:36:39.252Z,14.50
2022-10-20T05:39:07.232Z,18.10
2022-10-20T05:41:38.706Z,15.10
2022-10-20T05:44:11.724Z,18.00
2022-10-20T05:46:41.933Z,16.90
2022-10-20T05:49:14.178Z,16.50
2022-10-20T05:51:42.624Z,15.90
2022-10-20T05:54:12.794Z,16.80
2022-10-20T05:56:41.419Z,17.90
2022-10-20T05:59:10.520Z,18.30
2022-10-20T06:01:41.285Z,21.20
2022-10-20T06:04:09.304Z,21.00
2022-10-20T06:06:37.671Z,20.30
2022-10-20T06:09:07.850Z,18.30
2022-10-20T06:11:39.237Z,21.10
2022-10-20T06:14:09.753Z,18.10
2022-10-20T06:16:38.569Z,19.20
2022-10-20T06:19:07.307Z,16.80
2022-10-20T06:21:36.967Z,22.90
2022-10-20T06:24:06.010Z,18.40
2022-10-20T06:26:36.779Z,18.10
2022-10-20T06:29:07.180Z,26.10
2022-10-20T06:31:39.182Z,18.20
2022-10-20T06:34:10.004Z,17.60
2022-10-20T06:36:40.006Z,17.10
2022-10-20T06:39:12.660Z,21.30
2022-10-20T06:41:42.534Z,18.60
2022-10-20T06:44:12.904Z,20.40
2022-10-20T06:46:41.116Z,23.70
2022-10-20T06:49:11.642Z,25.10
2022-10-20T06:51:39.813Z,19.60
2022-10-20T06:54:08.059Z,21.40
2022-10-20T06:56:37.242Z,22.00
2022-10-20T06:59:05.782Z,25.50
2022-10-20T07:01:36.389Z,24.90
2022-10-20T07:04:07.292Z,26.30
2022-10-20T07:06:39.419Z,31.10
2022-10-20T07:09:09.423Z,23.20
2022-10-20T07:11:37.602Z,27.00
2022-10-20T07:14:05.962Z,26.80
2022-10-20T07:16:35.046Z,29.20
2022-10-20T07:19:05.214Z,23.00
2022-10-20T07:21:37.301Z,24.20
2022-10-20T07:24:07.325Z,25.00
2022-10-20T07:26:39.197Z,24.00
2022-10-20T07:29:07.456Z,23.60
2022-10-20T07:31:41.828Z,24.90
2022-10-20T07:34:28.129Z,28.00
2022-10-20T07:36:57.647Z,33.90
2022-10-20T07:39:26.779Z,26.90
2022-10-20T07:41:54.879Z,22.80
2022-10-20T07:44:23.297Z,25.40
2022-10-20T07:46:51.774Z,22.60
2022-10-20T07:52:08.063Z,34.50
2022-10-20T07:54:36.286Z,30.80
2022-10-20T07:57:04.421Z,31.40
2022-10-20T07:59:32.690Z,21.10
2022-10-20T08:02:00.928Z,20.10
2022-10-20T08:04:31.654Z,25.30
2022-10-20T08:07:00.473Z,29.50
2022-10-20T08:09:28.714Z,29.50
2022-10-20T08:11:56.832Z,22.80
2022-10-20T08:14:27.523Z,9.50
2022-10-20T08:17:02.225Z,10.30
2022-10-20T08:19:39.030Z,12.70
2022-10-20T08:22:07.033Z,7.50
2022-10-20T08:24:35.724Z,32.60
2022-10-20T08:27:03.989Z,7.60
2022-10-20T08:29:32.502Z,36.70
2022-10-20T08:32:00.731Z,9.80
2022-10-20T08:34:28.749Z,15.70
2022-10-20T08:36:56.775Z,19.50
2022-10-20T08:39:25.349Z,6.40
2022-10-20T08:42:07.484Z,9.00
2022-10-20T08:44:40.531Z,4.60
2022-10-20T08:47:33.657Z,5.10
2022-10-20T08:50:09.557Z,5.60
2022-10-20T08:52:40.692Z,6.80
2022-10-20T08:55:19.268Z,6.70
2022-10-20T08:57:49.336Z,3.80
2022-10-20T09:00:22.958Z,2.90
2022-10-20T09:02:51.380Z,9.10
2022-10-20T09:05:24.940Z,5.20
2022-10-20T09:07:54.931Z,11.90
2022-10-20T09:10:33.929Z,14.10
2022-10-20T09:13:03.326Z,2.40
2022-10-20T09:15:32.210Z,4.10
2022-10-20T09:18:06.509Z,12.90
2022-10-20T09:20:51.176Z,8.60
2022-10-20T09:23:39.858Z,2.20
2022-10-20T09:26:24.947Z,2.50
2022-10-20T09:29:15.165Z,2.60
2022-10-20T09:31:49.918Z,2.70
2022-10-20T09:34:30.237Z,3.10
2022-10-20T09:37:04.701Z,6.10
2022-10-20T09:39:42.900Z,3.20
2022-10-20T09:42:18.605Z,6.40
2022-10-20T09:44:53.589Z,3.40
2022-10-20T09:47:24.202Z,1.80
2022-10-20T09:50:00.898Z,3.20
2022-10-20T09:52:35.018Z,3.80
2022-10-20T09:55:16.419Z,1.40
2022-10-20T09:57:48.920Z,3.20
2022-10-20T10:00:37.281Z,2.20
2022-10-20T10:03:10.313Z,6.90
2022-10-20T10:05:38.386Z,3.80
2022-10-20T10:08:14.177Z,4.30
2022-10-20T10:10:45.194Z,4.00
2022-10-20T10:13:26.512Z,4.10
2022-10-20T10:16:04.127Z,4.30
2022-10-20T10:18:32.983Z,4.40
2022-10-20T10:21:14.354Z,2.30
2022-10-20T10:26:46.245Z,5.20
2022-10-20T10:29:28.643Z,3.10
2022-10-20T10:32:24.933Z,3.40
2022-10-20T10:35:11.888Z,4.00
2022-10-20T10:37:43.281Z,4.60
2022-10-20T10:40:22.346Z,4.20
2022-10-20T10:42:59.651Z,3.70
2022-10-20T10:45:46.021Z,4.70
2022-10-20T10:50:54.185Z,2.50
2022-10-20T10:53:49.451Z,4.60
2022-10-20T10:56:42.422Z,3.20
2022-10-20T10:59:23.365Z,3.20
2022-10-20T11:02:14.188Z,4.90
2022-10-20T11:05:13.076Z,2.50
2022-10-20T11:10:25.419Z,1.50
2022-10-20T11:13:16.296Z,3.90
2022-10-20T11:16:16.856Z,2.80
2022-10-20T11:18:44.944Z,3.40
2022-10-20T11:21:29.195Z,6.80
2022-10-20T11:24:21.049Z,4.00
2022-10-20T11:26:54.648Z,2.60
2022-10-20T11:30:05.361Z,3.90
2022-10-20T11:32:51.082Z,3.00
2022-10-20T11:35:28.123Z,3.90
2022-10-20T11:38:21.001Z,3.40
2022-10-20T11:40:55.248Z,3.30
2022-10-20T11:43:32.699Z,1.40
2022-10-20T11:46:08.282Z,2.40
2022-10-20T11:48:50.918Z,3.90
2022-10-20T11:51:28.246Z,1.80
2022-10-20T11:54:14.627Z,3.60
2022-10-20T11:57:04.454Z,2.70
2022-10-20T11:59:44.627Z,2.40
2022-10-20T12:02:19.221Z,2.90
2022-10-20T12:05:05.895Z,1.40
2022-10-20T12:07:51.536Z,2.50
2022-10-20T12:10:35.152Z,1.40
2022-10-20T12:13:30.405Z,3.70
2022-10-20T12:15:58.865Z,4.00
2022-10-20T12:18:28.860Z,2.80
2022-10-20T12:21:02.358Z,1.80
2022-10-20T12:23:42.778Z,2.40
2022-10-20T12:26:29.644Z,2.50
2022-10-20T12:28:58.412Z,2.10
2022-10-20T12:32:05.018Z,2.80
2022-10-20T12:34:41.961Z,5.10
2022-10-20T12:37:30.315Z,3.80
2022-10-20T12:40:07.448Z,2.10
2022-10-20T12:42:48.944Z,2.60
2022-10-20T12:45:20.002Z,3.00
2022-10-20T12:50:34.228Z,5.30
2022-10-20T12:53:17.494Z,3.50
2022-10-20T12:55:54.133Z,2.90
2022-10-20T12:58:22.504Z,2.50
2022-10-20T13:00:50.824Z,2.90
2022-10-20T13:03:39.540Z,2.30
2022-10-20T13:06:30.240Z,2.70
2022-10-20T13:09:21.383Z,3.90
2022-10-20T13:12:00.958Z,1.80
2022-10-20T13:14:44.520Z,2.90
2022-10-20T13:17:20.503Z,2.90
2022-10-20T13:20:01.480Z,2.00
2022-10-20T13:22:46.813Z,4.50
2022-10-20T13:25:33.999Z,3.50
2022-10-20T13:28:12.387Z,2.90
2022-10-20T13:30:59.953Z,3.50
2022-10-20T13:34:02.519Z,2.50
2022-10-20T13:37:01.319Z,2.40
2022-10-20T13:39:51.269Z,2.10
2022-10-20T13:42:31.532Z,1.70
2022-10-20T13:45:24.635Z,2.50
2022-10-20T13:48:08.354Z,4.10
2022-10-20T13:50:43.166Z,1.50
2022-10-20T13:53:26.201Z,2.70
2022-10-20T13:55:57.036Z,3.10
2022-10-20T13:58:26.047Z,3.20
2022-10-20T14:01:06.545Z,3.10
2022-10-20T14:03:43.517Z,3.20
2022-10-20T14:06:27.136Z,3.30
2022-10-20T14:08:56.840Z,2.50
2022-10-20T14:11:31.492Z,5.70
2022-10-20T14:14:01.995Z,48.40
2022-10-20T14:16:32.011Z,24.20
2022-10-20T14:19:09.405Z,7.50
2022-10-20T14:21:46.907Z,7.10
2022-10-20T14:24:30.674Z,4.30
2022-10-20T14:27:00.761Z,5.40
2022-10-20T14:29:35.169Z,4.30
2022-10-20T14:32:05.062Z,1.80
2022-10-20T14:34:36.867Z,3.30
2022-10-20T14:37:20.343Z,3.60
2022-10-20T14:39:50.787Z,2.40
2022-10-20T14:42:31.421Z,3.60
2022-10-20T14:45:02.682Z,3.40
2022-10-20T14:47:49.672Z,2.60
2022-10-20T14:50:24.016Z,4.60
2022-10-20T14:52:54.218Z,13.20
2022-10-20T14:55:39.767Z,5.20
2022-10-20T14:58:35.202Z,3.70
2022-10-20T15:01:29.332Z,8.00
2022-10-20T15:04:27.149Z,5.60
2022-10-20T15:07:13.649Z,3.30
2022-10-20T15:09:52.310Z,5.50
2022-10-20T15:12:24.579Z,5.80
2022-10-20T15:15:02.605Z,5.00
2022-10-20T15:17:40.286Z,4.00
2022-10-20T15:20:30.625Z,6.10
2022-10-20T15:23:16.815Z,9.30
2022-10-20T15:25:56.078Z,8.20
2022-10-20T15:28:40.615Z,8.80
2022-10-20T15:31:22.243Z,4.70
2022-10-20T15:33:51.744Z,5.20
2022-10-20T15:36:29.164Z,4.80
2022-10-20T15:38:57.771Z,6.20
2022-10-20T15:41:28.663Z,6.60
2022-10-20T15:44:02.617Z,5.50
2022-10-20T15:46:30.792Z,6.70
2022-10-20T15:48:58.911Z,6.70
2022-10-20T15:51:29.330Z,6.50
2022-10-20T15:53:58.579Z,4.30
2022-10-20T15:56:26.654Z,6.80
2022-10-20T15:58:54.964Z,7.10
2022-10-20T16:01:23.359Z,6.90
2022-10-20T16:03:51.552Z,12.40
2022-10-20T16:06:19.961Z,5.80
2022-10-20T16:08:50.104Z,4.10
2022-10-20T16:11:20.825Z,6.30
2022-10-20T16:13:49.295Z,7.40
2022-10-20T16:16:21.106Z,7.90
2022-10-20T16:18:49.370Z,8.20
2022-10-20T16:21:17.675Z,12.00
2022-10-20T16:23:45.792Z,8.90
2022-10-20T16:26:15.325Z,8.10
2022-10-20T16:28:44.383Z,7.20
2022-10-20T16:31:14.368Z,9.90
2022-10-20T16:33:43.325Z,9.20
2022-10-20T16:36:15.153Z,12.80
2022-10-20T16:38:43.777Z,19.30
2022-10-20T16:41:15.192Z,26.60
2022-10-20T16:43:45.466Z,14.20
2022-10-20T16:46:15.932Z,17.10
2022-10-20T16:48:47.702Z,20.40
2022-10-20T16:51:17.603Z,16.30
2022-10-20T16:53:45.676Z,17.30
2022-10-20T16:56:16.634Z,16.10
2022-10-20T16:58:48.642Z,15.20
2022-10-20T17:01:19.290Z,17.10
2022-10-20T17:03:49.429Z,21.60
2022-10-20T17:06:20.244Z,21.00
2022-10-20T17:08:48.575Z,27.10
2022-10-20T17:11:19.873Z,22.80
2022-10-20T17:13:48.497Z,29.70
2022-10-20T17:16:28.474Z,32.80
2022-10-20T17:18:59.068Z,30.70
2022-10-20T17:21:28.361Z,37.60
2022-10-20T17:23:56.982Z,33.30
2022-10-20T17:26:27.939Z,37.00
2022-10-20T17:28:57.806Z,34.00
2022-10-20T17:31:26.775Z,34.80
2022-10-20T17:33:56.457Z,30.10
2022-10-20T17:36:26.766Z,23.90
2022-10-20T17:38:57.704Z,27.80
2022-10-20T17:41:26.554Z,22.60
2022-10-20T17:43:54.860Z,19.60
2022-10-20T17:46:23.090Z,22.40
2022-10-20T17:48:51.152Z,25.40
2022-10-20T17:51:31.804Z,20.30
2022-10-20T17:54:04.179Z,20.50
2022-10-20T17:56:38.360Z,20.50
2022-10-20T17:59:08.720Z,21.30
2022-10-20T18:01:39.381Z,23.00
2022-10-20T18:04:13.207Z,23.60
2022-10-20T18:06:42.595Z,28.30
2022-10-20T18:09:14.061Z,29.40
2022-10-20T18:11:51.844Z,29.60
2022-10-20T18:14:20.108Z,32.00
2022-10-20T18:16:48.333Z,35.00
2022-10-20T18:19:18.700Z,23.30
2022-10-20T18:21:47.527Z,30.40
2022-10-20T18:24:17.530Z,33.50
2022-10-20T18:26:46.714Z,34.90
2022-10-20T18:29:16.432Z,39.00
2022-10-20T18:31:46.098Z,42.30
2022-10-20T18:34:23.495Z,37.80
2022-10-20T18:36:54.769Z,32.20
2022-10-20T18:39:23.413Z,37.80
2022-10-20T18:41:52.626Z,36.10
2022-10-20T18:44:21.047Z,25.50
2022-10-20T18:46:49.728Z,33.50
2022-10-20T18:49:21.233Z,28.40
2022-10-20T18:51:53.114Z,40.10
2022-10-20T18:54:23.379Z,52.90
2022-10-20T18:56:51.801Z,49.20
2022-10-20T18:59:20.458Z,33.50
2022-10-20T19:01:48.923Z,32.70
2022-10-20T19:06:48.946Z,28.90
2022-10-20T19:09:20.127Z,27.70
2022-10-20T19:14:18.381Z,24.10
2022-10-20T19:16:47.157Z,22.50
2022-10-20T19:19:16.405Z,23.40
2022-10-20T19:21:45.359Z,25.80
2022-10-20T19:24:18.182Z,31.60
2022-10-20T19:26:57.244Z,35.30
2022-10-20T19:29:36.757Z,30.60
2022-10-20T19:32:06.377Z,41.90
2022-10-20T19:34:37.597Z,39.60
2022-10-20T19:37:06.552Z,33.40
2022-10-20T19:39:38.896Z,31.30
2022-10-20T19:42:08.311Z,33.70
2022-10-20T19:44:36.605Z,33.90
2022-10-20T19:47:06.284Z,36.90
2022-10-20T19:49:34.859Z,31.30
2022-10-20T19:52:04.339Z,31.30
2022-10-20T19:54:32.543Z,40.70
2022-10-20T19:57:00.631Z,36.10
2022-10-20T19:59:29.037Z,46.00
2022-10-20T20:01:57.319Z,38.90
2022-10-20T20:04:25.466Z,39.50
2022-10-20T20:06:56.253Z,31.20
2022-10-20T20:09:29.562Z,28.60
2022-10-20T20:11:58.410Z,32.50
2022-10-20T20:14:26.514Z,28.10
2022-10-20T20:16:54.646Z,27.40
2022-10-20T20:19:22.787Z,30.70
2022-10-20T20:21:50.824Z,23.40
2022-10-20T20:24:19.142Z,23.00
2022-10-20T20:26:47.353Z,24.30
2022-10-20T20:29:15.389Z,20.50
2022-10-20T20:31:43.906Z,21.80
2022-10-20T20:34:11.934Z,19.80
2022-10-20T20:36:39.971Z,17.20
2022-10-20T20:39:09.921Z,16.30
2022-10-20T20:41:38.219Z,19.80
2022-10-20T20:44:08.438Z,16.70
2022-10-20T20:46:37.201Z,18.50
2022-10-20T20:49:05.541Z,16.20
2022-10-20T20:51:34.097Z,17.10
2022-10-20T20:54:04.099Z,12.20
2022-10-20T20:56:32.423Z,13.70
2022-10-20T20:59:00.546Z,15.60
2022-10-20T21:01:34.083Z,16.80
2022-10-20T21:04:05.039Z,13.70
2022-10-20T21:06:49.536Z,16.30
2022-10-20T21:09:21.819Z,16.50
2022-10-20T21:11:49.963Z,17.70
2022-10-20T21:14:18.021Z,17.00
2022-10-20T21:16:46.608Z,16.80
2022-10-20T21:19:14.859Z,16.10
2022-10-20T21:21:47.253Z,16.80
2022-10-20T21:24:15.743Z,19.10
2022-10-20T21:26:43.989Z,16.10
2022-10-20T21:29:12.084Z,18.60
2022-10-20T21:31:40.931Z,20.50
2022-10-20T21:34:10.288Z,20.00
2022-10-20T21:36:40.270Z,20.30
2022-10-20T21:39:12.090Z,18.90
2022-10-20T21:41:40.389Z,21.00
2022-10-20T21:44:09.454Z,21.90
2022-10-20T21:46:42.319Z,20.50
2022-10-20T21:49:13.333Z,20.50
2022-10-20T21:51:45.595Z,22.40
2022-10-20T21:54:16.577Z,19.40
2022-10-20T21:59:19.047Z,17.30
2022-10-20T22:01:48.929Z,18.60
2022-10-20T22:04:23.736Z,20.80
2022-10-20T22:06:52.124Z,19.90
2022-10-20T22:09:21.258Z,17.40
2022-10-20T22:11:52.399Z,22.10
2022-10-20T22:14:20.724Z,20.40
2022-10-20T22:16:48.862Z,17.60
2022-10-20T22:19:22.455Z,17.10
2022-10-20T22:21:52.533Z,16.80
2022-10-20T22:24:21.435Z,16.60
2022-10-20T22:26:51.863Z,18.20
2022-10-20T22:29:21.400Z,18.30
2022-10-20T22:31:50.150Z,17.50
2022-10-20T22:34:18.175Z,16.70
2022-10-20T22:36:46.728Z,18.00
2022-10-20T22:39:15.096Z,14.40
2022-10-20T22:41:43.542Z,14.10
2022-10-20T22:44:12.118Z,14.60
2022-10-20T22:46:40.124Z,13.50
2022-10-20T22:49:08.511Z,14.10
2022-10-20T22:51:36.696Z,14.20
2022-10-20T22:54:04.921Z,13.90
2022-10-20T22:56:32.985Z,15.10
2022-10-20T22:59:01.177Z,17.50
2022-10-20T23:01:29.409Z,14.60
2022-10-20T23:03:57.619Z,17.50
2022-10-20T23:06:26.526Z,17.40
2022-10-20T23:08:56.270Z,12.20
2022-10-20T23:11:24.888Z,15.50
2022-10-20T23:13:53.710Z,16.30
2022-10-20T23:16:22.079Z,14.90
2022-10-20T23:18:50.203Z,16.80
2022-10-20T23:21:18.879Z,17.80
2022-10-20T23:23:46.984Z,12.40
2022-10-20T23:26:15.288Z,14.60
2022-10-20T23:28:43.435Z,14.90
2022-10-20T23:31:13.733Z,15.80
2022-10-20T23:33:43.247Z,15.20
2022-10-20T23:36:13.125Z,12.80
2022-10-20T23:38:42.583Z,17.90
2022-10-20T23:41:10.856Z,15.10
2022-10-20T23:43:39.022Z,11.40
2022-10-20T23:46:07.885Z,14.30
2022-10-20T23:48:36.282Z,15.00
2022-10-20T23:51:06.011Z,14.00
2022-10-20T23:53:35.015Z,14.50
2022-10-20T23:56:03.818Z,15.20
2022-10-20T23:58:31.976Z,15.90
